Time;durP1;ratioP1;P1;durP2;ratioP2;P2;SDS_P1;SDS_P2;PMS_P1;PMS_P2;Temp;Humidity;BMP_temperature;BMP_pressure;BME280_temperature;BME280_humidity;BME280_pressure;Samples;Min_cycle;Max_cycle;Signal;HPM_P1;HPM_P2
2023/05/01 00:01:25;;;;;;;7.45;5.50;;;;;;;9.96;65.93;96664.59;6212610;23;20025;-81
2023/05/01 00:03:53;;;;;;;6.78;5.85;;;;;;;9.94;66.01;96660.53;6212720;23;20080;-81
2023/05/01 00:06:23;;;;;;;7.60;5.93;;;;;;;9.93;66.22;96661.50;6213794;23;20047;-80
2023/05/01 00:08:51;;;;;;;6.35;5.75;;;;;;;9.95;67.36;96657.78;6213397;23;20088;-81
2023/05/01 00:11:19;;;;;;;6.70;5.57;;;;;;;10.08;71.20;96654.56;6213360;23;20008;-81
2023/05/01 00:13:47;;;;;;;7.32;6.40;;;;;;;10.19;72.25;96651.53;6213366;23;20009;-81
2023/05/01 00:16:16;;;;;;;12.38;7.43;;;;;;;10.31;74.07;96651.91;6212034;23;20020;-81
2023/05/01 00:18:44;;;;;;;10.80;8.02;;;;;;;10.39;74.66;96644.03;6212546;23;20031;-81
2023/05/01 00:21:12;;;;;;;8.73;7.82;;;;;;;10.45;75.96;96645.09;6213397;23;20009;-81
2023/05/01 00:23:42;;;;;;;10.02;7.82;;;;;;;10.52;76.38;96648.59;6212815;23;20017;-80
2023/05/01 00:26:10;;;;;;;8.82;7.78;;;;;;;10.51;74.22;96642.56;6212930;23;20005;-80
2023/05/01 00:28:38;;;;;;;9.80;8.60;;;;;;;10.54;75.78;96645.81;6212078;23;20009;-81
2023/05/01 00:31:06;;;;;;;9.55;7.90;;;;;;;10.52;73.55;96638.97;6212908;23;20021;-81
2023/05/01 00:33:34;;;;;;;9.13;8.07;;;;;;;10.38;70.30;96636.38;6213617;23;20061;-80
2023/05/01 00:36:02;;;;;;;13.32;8.13;;;;;;;10.21;69.86;96625.25;6213335;23;20012;-79
2023/05/01 00:38:30;;;;;;;9.77;7.43;;;;;;;10.12;69.42;96621.91;6213732;23;20023;-81
2023/05/01 00:41:00;;;;;;;8.32;7.50;;;;;;;10.07;69.67;96624.25;6212906;23;20005;-81
2023/05/01 00:43:28;;;;;;;6.82;6.10;;;;;;;10.05;68.79;96616.59;6212785;23;20017;-81
2023/05/01 00:45:56;;;;;;;7.03;6.20;;;;;;;10.00;68.39;96618.94;6213191;23;20027;-81
2023/05/01 00:48:26;;;;;;;7.20;6.25;;;;;;;9.95;68.34;96617.84;6212371;23;20017;-81
2023/05/01 00:50:55;;;;;;;7.47;6.47;;;;;;;9.91;68.36;96620.03;6212944;23;20017;-80
2023/05/01 00:53:25;;;;;;;6.88;6.13;;;;;;;9.94;72.56;96609.22;6212026;23;20029;-81
2023/05/01 00:55:55;;;;;;;8.05;6.50;;;;;;;10.04;74.53;96609.00;6211828;23;20016;-81
2023/05/01 00:58:24;;;;;;;10.63;6.57;;;;;;;10.05;70.95;96608.00;6212396;23;20016;-80
2023/05/01 01:00:53;;;;;;;7.55;6.82;;;;;;;9.99;69.51;96606.09;6212983;23;20004;-80
2023/05/01 01:03:21;;;;;;;7.97;7.15;;;;;;;9.95;69.63;96607.44;6212488;23;20005;-81
2023/05/01 01:05:56;;;;;;;7.55;6.85;;;;;;;9.97;70.37;96602.84;6212310;23;20005;-81
2023/05/01 01:08:30;;;;;;;9.73;7.47;;;;;;;9.95;70.74;96604.81;6211320;23;20041;-81
2023/05/01 01:11:11;;;;;;;9.25;8.30;;;;;;;9.97;69.70;96602.84;6211810;23;20475;-80
2023/05/01 01:13:47;;;;;;;8.30;7.50;;;;;;;9.93;68.53;96596.38;6212416;23;20001;-81
2023/05/01 01:16:21;;;;;;;8.30;6.82;;;;;;;9.88;68.28;96597.75;6211120;23;20025;-81
2023/05/01 01:18:56;;;;;;;8.13;6.90;;;;;;;9.82;67.92;96590.63;6211334;23;20025;-80
2023/05/01 01:21:31;;;;;;;10.65;7.78;;;;;;;9.77;68.23;96592.94;6212262;23;20211;-81
2023/05/01 01:24:26;;;;;;;8.23;7.43;;;;;;;9.73;68.37;96594.28;6213024;23;20012;-79
2023/05/01 01:27:18;;;;;;;7.53;6.78;;;;;;;9.66;68.28;96593.34;6213203;23;20017;-80
2023/05/01 01:30:02;;;;;;;7.10;6.40;;;;;;;9.58;68.32;96598.66;6213475;23;20005;-81
2023/05/01 01:32:55;;;;;;;7.65;6.85;;;;;;;9.51;68.72;96593.34;6213014;23;20036;-81
2023/05/01 01:35:27;;;;;;;7.47;6.78;;;;;;;9.47;68.63;96587.66;6213089;23;20012;-80
2023/05/01 01:38:06;;;;;;;7.15;6.45;;;;;;;9.46;68.56;96585.22;6211915;23;20025;-81
2023/05/01 01:40:39;;;;;;;9.02;6.47;;;;;;;9.43;68.60;96588.19;6212364;23;20080;-81
2023/05/01 01:43:10;;;;;;;7.32;6.43;;;;;;;9.41;68.68;96588.34;6211334;23;20009;-81
2023/05/01 01:45:41;;;;;;;7.78;6.88;;;;;;;9.38;68.72;96583.50;6211540;23;20005;-80
2023/05/01 01:48:11;;;;;;;8.52;7.07;;;;;;;9.37;68.55;96578.47;6211407;23;20001;-81
2023/05/01 01:50:42;;;;;;;8.05;6.60;;;;;;;9.34;69.01;96574.41;6211830;23;20018;-80
2023/05/01 01:53:13;;;;;;;10.18;7.03;;;;;;;9.31;68.78;96574.75;6210136;23;20021;-81
2023/05/01 01:55:43;;;;;;;8.32;6.75;;;;;;;9.32;69.26;96572.97;6209988;23;20005;-81
2023/05/01 01:58:12;;;;;;;7.82;7.03;;;;;;;9.40;73.09;96573.72;6209734;23;20032;-81
2023/05/01 02:00:43;;;;;;;10.50;7.50;;;;;;;9.48;71.55;96568.44;6210917;23;20017;-81
2023/05/01 02:03:13;;;;;;;8.88;7.22;;;;;;;9.45;69.96;96568.81;6209522;23;20064;-80
2023/05/01 02:05:43;;;;;;;7.22;6.53;;;;;;;9.45;70.33;96566.19;6212098;23;20077;-80
2023/05/01 02:08:13;;;;;;;7.80;7.00;;;;;;;9.49;71.67;96559.66;6211631;23;20044;-81
2023/05/01 02:10:43;;;;;;;9.05;8.15;;;;;;;9.51;70.27;96561.25;6211626;23;20001;-81
2023/05/01 02:13:13;;;;;;;10.02;8.57;;;;;;;9.54;72.49;96568.75;6211802;23;20021;-81
2023/05/01 02:15:42;;;;;;;9.88;8.98;;;;;;;9.69;75.41;96559.97;6211788;23;20017;-81
2023/05/01 02:18:10;;;;;;;9.48;8.48;;;;;;;9.80;76.55;96561.34;6209211;23;20021;-81
2023/05/01 02:20:38;;;;;;;10.80;9.15;;;;;;;9.86;75.71;96558.03;6210643;23;20056;-81
2023/05/01 02:23:09;;;;;;;9.32;8.23;;;;;;;9.92;78.44;96558.28;6213389;23;20021;-81
2023/05/01 02:25:39;;;;;;;9.07;8.05;;;;;;;9.95;76.48;96557.91;6213601;23;20001;-80
2023/05/01 02:28:12;;;;;;;8.88;7.97;;;;;;;9.99;75.77;96564.41;6213570;23;20021;-81
2023/05/01 02:30:40;;;;;;;8.63;7.82;;;;;;;10.02;77.23;96561.44;6212174;23;20052;-81
2023/05/01 02:33:08;;;;;;;8.98;8.07;;;;;;;10.05;77.56;96548.84;6211045;23;20005;-81
2023/05/01 02:35:40;;;;;;;8.25;7.03;;;;;;;9.99;72.00;96547.00;6213450;23;20048;-81
2023/05/01 02:38:10;;;;;;;8.43;6.68;;;;;;;9.89;72.34;96549.84;6211647;23;20017;-80
2023/05/01 02:40:39;;;;;;;7.43;6.80;;;;;;;9.87;75.66;96544.00;6212397;23;20017;-81
2023/05/01 02:43:11;;;;;;;9.00;7.30;;;;;;;9.94;72.59;96548.50;6213258;23;20076;-81
2023/05/01 02:45:40;;;;;;;8.90;7.80;;;;;;;9.95;75.80;96543.13;6213700;23;20024;-81
2023/05/01 02:48:10;;;;;;;10.55;7.05;;;;;;;9.93;71.50;96539.03;6211688;23;20075;-80
2023/05/01 02:50:40;;;;;;;6.93;6.15;;;;;;;9.87;70.52;96538.78;6211631;23;20034;-81
2023/05/01 02:53:12;;;;;;;7.22;6.53;;;;;;;9.80;68.96;96524.88;6212781;23;20020;-80
2023/05/01 02:55:41;;;;;;;9.50;6.43;;;;;;;9.72;69.11;96522.31;6212268;23;20024;-80
2023/05/01 02:58:15;;;;;;;8.82;7.25;;;;;;;9.63;68.37;96520.78;6212962;23;20009;-80
2023/05/01 03:00:44;;;;;;;11.00;7.72;;;;;;;9.57;68.97;96509.28;6214502;23;20009;-80
2023/05/01 03:03:12;;;;;;;8.27;7.22;;;;;;;9.50;68.79;96510.97;6213791;23;20052;-81
2023/05/01 03:05:40;;;;;;;7.88;6.78;;;;;;;9.47;68.68;96514.75;6213341;23;20032;-81
2023/05/01 03:08:10;;;;;;;6.72;6.13;;;;;;;9.46;69.40;96515.72;6211921;23;20025;-81
2023/05/01 03:10:41;;;;;;;8.48;7.57;;;;;;;9.53;73.75;96508.00;6210957;23;20024;-81
2023/05/01 03:13:09;;;;;;;8.63;7.03;;;;;;;9.64;75.22;96512.81;6212036;23;20017;-81
2023/05/01 03:15:37;;;;;;;8.07;7.03;;;;;;;9.71;73.17;96505.09;6211331;23;20025;-81
2023/05/01 03:18:05;;;;;;;7.90;6.80;;;;;;;9.70;70.99;96508.69;6213177;23;20024;-81
2023/05/01 03:20:33;;;;;;;10.30;7.20;;;;;;;9.68;69.73;96503.63;6210659;23;20017;-81
2023/05/01 03:23:02;;;;;;;7.90;7.10;;;;;;;9.66;69.45;96500.44;6212672;23;20367;-81
2023/05/01 03:25:31;;;;;;;7.60;6.18;;;;;;;9.63;68.92;96502.56;6212667;23;20021;-81
2023/05/01 03:27:59;;;;;;;6.90;6.25;;;;;;;9.63;71.35;96492.94;6213387;23;20025;-81
2023/05/01 03:30:27;;;;;;;8.32;6.65;;;;;;;9.67;70.20;96498.63;6212193;23;20017;-80
2023/05/01 03:32:55;;;;;;;7.78;6.70;;;;;;;9.67;68.79;96496.81;6208237;22;20031;-81
2023/05/01 03:35:23;;;;;;;6.47;5.88;;;;;;;9.72;70.03;96492.88;6212934;23;20506;-80
2023/05/01 03:37:51;;;;;;;8.43;6.70;;;;;;;9.74;68.87;96489.09;6213007;23;20032;-80
2023/05/01 03:40:19;;;;;;;7.43;6.32;;;;;;;9.74;71.65;96496.91;6212545;23;20017;-81
2023/05/01 03:42:48;;;;;;;7.10;6.40;;;;;;;9.82;72.42;96489.03;6210844;23;20032;-81
2023/05/01 03:45:17;;;;;;;7.68;6.82;;;;;;;9.89;73.68;96486.50;6212388;23;20028;-81
2023/05/01 03:47:45;;;;;;;8.07;7.28;;;;;;;10.00;75.57;96490.47;6213184;23;20009;-81
2023/05/01 03:50:13;;;;;;;7.95;6.95;;;;;;;10.08;75.41;96485.16;6211421;23;20017;-81
2023/05/01 03:52:41;;;;;;;6.75;6.00;;;;;;;10.02;70.61;96488.47;6212797;23;20013;-81
2023/05/01 03:55:09;;;;;;;6.28;5.68;;;;;;;9.94;69.59;96486.75;6211134;23;20017;-81
2023/05/01 03:57:37;;;;;;;6.95;6.18;;;;;;;9.92;69.13;96485.34;6212721;23;20005;-81
2023/05/01 04:00:09;;;;;;;10.88;6.45;;;;;;;9.96;69.50;96481.38;6213611;23;20001;-81
2023/05/01 04:02:37;;;;;;;6.28;5.68;;;;;;;9.97;69.17;96482.97;6211828;23;20009;-80
2023/05/01 04:05:06;;;;;;;6.55;5.85;;;;;;;9.97;67.51;96478.59;6212212;23;20052;-81
2023/05/01 04:07:34;;;;;;;5.75;4.75;;;;;;;9.97;66.96;96480.38;6212889;23;20004;-81
2023/05/01 04:10:03;;;;;;;5.53;5.03;;;;;;;9.97;66.46;96475.16;6213315;23;20035;-81
2023/05/01 04:12:31;;;;;;;5.45;4.90;;;;;;;10.03;68.25;96480.47;6212110;23;20025;-81
2023/05/01 04:14:59;;;;;;;7.60;4.75;;;;;;;10.08;66.62;96474.72;6212149;23;20044;-81
2023/05/01 04:17:28;;;;;;;5.88;5.07;;;;;;;10.10;66.03;96483.16;6213261;23;20001;-81
2023/05/01 04:19:56;;;;;;;6.55;4.97;;;;;;;10.08;65.18;96472.94;6212001;23;20005;-81
2023/05/01 04:22:25;;;;;;;4.95;4.55;;;;;;;10.07;64.94;96481.72;6212570;23;20049;-81
2023/05/01 04:24:53;;;;;;;5.05;4.55;;;;;;;10.06;64.72;96481.94;6212243;23;20016;-81
2023/05/01 04:27:21;;;;;;;5.75;5.15;;;;;;;10.05;64.39;96475.88;6212979;23;20094;-81
2023/05/01 04:29:49;;;;;;;6.13;5.22;;;;;;;10.04;64.12;96476.88;6212912;23;20012;-81
2023/05/01 04:32:17;;;;;;;5.47;4.82;;;;;;;10.02;64.44;96475.44;6213202;23;20080;-81
2023/05/01 04:34:46;;;;;;;6.45;4.97;;;;;;;10.01;64.03;96473.81;6211213;23;20032;-81
2023/05/01 04:37:16;;;;;;;5.68;5.18;;;;;;;10.02;64.08;96476.25;6211892;23;20001;-81
2023/05/01 04:39:44;;;;;;;5.63;4.97;;;;;;;10.04;64.12;96481.28;6211761;23;20061;-81
2023/05/01 04:42:12;;;;;;;7.40;4.57;;;;;;;10.04;63.89;96478.69;6212294;23;20009;-81
2023/05/01 04:44:40;;;;;;;5.38;4.88;;;;;;;10.05;63.71;96477.69;6212730;23;20009;-81
2023/05/01 04:47:08;;;;;;;5.95;4.90;;;;;;;10.06;63.80;96479.31;6212423;23;20028;-81
2023/05/01 04:49:36;;;;;;;6.47;5.75;;;;;;;10.06;63.61;96477.50;6212435;23;20024;-81
2023/05/01 04:52:06;;;;;;;7.18;5.75;;;;;;;10.07;63.56;96483.53;6211123;23;20021;-81
2023/05/01 04:54:34;;;;;;;6.75;5.25;;;;;;;10.06;63.66;96487.13;6212495;23;20013;-81
2023/05/01 04:57:02;;;;;;;5.40;4.90;;;;;;;10.09;65.37;96487.56;6211876;23;20021;-80
2023/05/01 04:59:30;;;;;;;8.50;5.80;;;;;;;10.15;65.09;96486.03;6212240;23;20005;-81
2023/05/01 05:01:58;;;;;;;6.70;5.88;;;;;;;10.20;64.26;96482.88;6212557;23;20024;-81
2023/05/01 05:04:26;;;;;;;6.03;5.30;;;;;;;10.23;63.75;96482.50;6212453;23;20028;-81
2023/05/01 05:06:55;;;;;;;6.00;5.50;;;;;;;10.27;65.76;96487.19;6212703;23;20060;-81
2023/05/01 05:09:24;;;;;;;7.20;6.07;;;;;;;10.40;69.79;96490.97;6212731;23;20012;-81
2023/05/01 05:11:52;;;;;;;6.97;6.03;;;;;;;10.47;68.09;96489.25;6212246;23;20020;-81
2023/05/01 05:14:21;;;;;;;6.38;5.78;;;;;;;10.56;68.97;96492.53;6211835;23;20004;-81
2023/05/01 05:16:48;;;;;;;5.93;5.43;;;;;;;10.59;66.90;96489.59;6211853;23;20012;-81
2023/05/01 05:19:17;;;;;;;6.03;5.43;;;;;;;10.53;65.36;96493.72;6212227;23;20005;-81
2023/05/01 05:21:45;;;;;;;6.78;5.82;;;;;;;10.55;67.82;96496.16;6212177;23;20009;-81
2023/05/01 05:24:13;;;;;;;5.93;5.20;;;;;;;10.55;65.37;96491.75;6212204;23;20029;-81
2023/05/01 05:26:44;;;;;;;5.70;5.10;;;;;;;10.53;65.81;96493.72;6213188;23;20078;-81
2023/05/01 05:29:13;;;;;;;6.43;5.72;;;;;;;10.61;70.49;96496.22;6212464;23;20459;-81
2023/05/01 05:31:41;;;;;;;6.22;5.57;;;;;;;10.67;68.57;96500.72;6213427;23;20028;-81
2023/05/01 05:34:09;;;;;;;5.63;5.03;;;;;;;10.70;68.46;96495.13;6213171;23;20012;-80
2023/05/01 05:36:37;;;;;;;7.72;6.30;;;;;;;10.79;71.88;96493.19;6213180;23;20016;-81
2023/05/01 05:39:05;;;;;;;6.90;6.28;;;;;;;10.89;73.08;96498.94;6212821;23;20094;-81
2023/05/01 05:41:33;;;;;;;6.72;5.55;;;;;;;10.90;69.79;96494.50;6212883;23;20032;-80
2023/05/01 05:44:03;;;;;;;9.75;5.55;;;;;;;10.92;70.12;96497.75;6212320;23;20032;-81
2023/05/01 05:46:31;;;;;;;7.45;6.00;;;;;;;10.91;71.27;96489.13;6212803;23;20001;-81
2023/05/01 05:48:59;;;;;;;7.00;6.30;;;;;;;11.00;72.99;96494.19;6212244;23;20008;-81
2023/05/01 05:51:27;;;;;;;7.25;5.80;;;;;;;11.03;72.05;96494.63;6212649;23;20048;-80
2023/05/01 05:53:55;;;;;;;6.35;5.75;;;;;;;11.08;73.98;96487.03;6212841;23;20028;-81
2023/05/01 05:56:23;;;;;;;7.20;6.43;;;;;;;11.14;73.68;96490.72;6214216;23;20048;-81
2023/05/01 05:58:51;;;;;;;8.60;6.25;;;;;;;11.18;73.08;96499.00;6215011;23;20008;-81
2023/05/01 06:01:21;;;;;;;7.80;5.63;;;;;;;11.20;72.09;96494.41;6214926;23;20044;-80
2023/05/01 06:03:49;;;;;;;6.82;5.82;;;;;;;11.18;69.67;96481.50;6214741;23;20005;-81
2023/05/01 06:06:17;;;;;;;8.48;6.72;;;;;;;11.21;70.66;96478.53;6214601;23;20008;-81
2023/05/01 06:08:45;;;;;;;6.43;5.68;;;;;;;11.15;67.27;96481.91;6215164;23;20016;-79
2023/05/01 06:11:14;;;;;;;8.02;5.65;;;;;;;11.13;67.43;96476.88;6214877;23;20036;-81
2023/05/01 06:13:41;;;;;;;6.53;5.90;;;;;;;11.19;70.04;96482.31;6214674;23;20001;-81
2023/05/01 06:16:10;;;;;;;8.48;7.28;;;;;;;11.19;65.41;96482.31;6214571;23;20008;-81
2023/05/01 06:18:39;;;;;;;9.10;6.13;;;;;;;11.12;64.81;96480.44;6215305;23;20009;-81
2023/05/01 06:21:08;;;;;;;6.72;5.80;;;;;;;11.12;65.22;96477.84;6214524;23;20027;-80
2023/05/01 06:23:36;;;;;;;6.80;6.10;;;;;;;11.11;64.09;96471.03;6214818;23;20005;-80
2023/05/01 06:26:04;;;;;;;6.43;5.82;;;;;;;11.05;63.20;96471.75;6214725;23;20013;-81
2023/05/01 06:28:32;;;;;;;7.43;5.35;;;;;;;11.02;62.82;96471.31;6214795;23;20048;-81
2023/05/01 06:31:00;;;;;;;9.32;5.93;;;;;;;10.97;62.49;96469.28;6214623;23;20027;-80
2023/05/01 06:33:28;;;;;;;6.35;5.57;;;;;;;10.88;62.63;96476.41;6214492;23;20032;-81
2023/05/01 06:35:58;;;;;;;8.80;6.15;;;;;;;10.81;62.55;96474.75;6214766;23;20009;-80
2023/05/01 06:38:27;;;;;;;7.70;5.93;;;;;;;10.80;63.70;96478.34;6214938;23;20126;-81
2023/05/01 06:40:55;;;;;;;8.13;5.95;;;;;;;10.78;63.18;96477.72;6214325;23;20016;-81
2023/05/01 06:43:26;;;;;;;11.07;6.45;;;;;;;10.79;65.24;96471.53;6214299;23;20021;-81
2023/05/01 06:45:55;;;;;;;8.10;6.13;;;;;;;10.76;64.01;96467.50;6214492;23;20021;-81
2023/05/01 06:48:23;;;;;;;7.20;6.45;;;;;;;10.74;64.08;96479.13;6214717;23;20075;-81
2023/05/01 06:50:51;;;;;;;6.65;5.95;;;;;;;10.73;63.94;96486.09;6214565;23;20009;-81
2023/05/01 06:53:21;;;;;;;6.28;5.55;;;;;;;10.70;64.56;96489.91;6214268;23;20005;-82
2023/05/01 06:55:49;;;;;;;8.57;6.65;;;;;;;10.72;64.57;96485.31;6212412;23;20048;-81
2023/05/01 06:58:18;;;;;;;9.43;6.68;;;;;;;10.74;64.02;96489.53;6213952;23;20028;-81
2023/05/01 07:00:51;;;;;;;8.32;7.22;;;;;;;10.70;64.78;96494.31;6214285;23;20009;-81
2023/05/01 07:03:19;;;;;;;9.10;6.65;;;;;;;10.68;64.41;96489.28;6214025;23;20017;-81
2023/05/01 07:05:48;;;;;;;9.15;7.05;;;;;;;10.69;64.93;96490.06;6213981;23;20044;-80
2023/05/01 07:08:16;;;;;;;7.30;6.60;;;;;;;10.71;65.27;96498.53;6213141;23;20013;-80
2023/05/01 07:10:45;;;;;;;8.25;7.18;;;;;;;10.76;65.52;96496.19;6214179;23;20020;-81
2023/05/01 07:13:13;;;;;;;7.40;6.70;;;;;;;10.79;65.80;96495.81;6213445;23;20048;-81
2023/05/01 07:15:41;;;;;;;6.72;6.13;;;;;;;10.89;68.71;96498.13;6214116;23;20021;-81
2023/05/01 07:18:11;;;;;;;8.00;7.20;;;;;;;11.04;70.06;96505.88;6213468;23;20064;-81
2023/05/01 07:20:39;;;;;;;8.48;7.50;;;;;;;11.10;68.41;96497.31;6213765;23;20009;-81
2023/05/01 07:23:08;;;;;;;10.52;7.38;;;;;;;11.12;67.54;96493.50;6213883;23;20025;-81
2023/05/01 07:25:37;;;;;;;7.82;6.97;;;;;;;11.18;68.45;96496.38;6213815;23;20031;-80
2023/05/01 07:28:08;;;;;;;8.90;7.45;;;;;;;11.24;68.21;96495.59;6214155;23;20001;-82
2023/05/01 07:30:36;;;;;;;8.13;6.80;;;;;;;11.30;67.70;96489.63;6214592;23;20001;-81
2023/05/01 07:33:05;;;;;;;37.67;26.35;;;;;;;11.38;70.47;96496.53;6214287;23;20060;-81
2023/05/01 07:35:34;;;;;;;11.90;8.80;;;;;;;11.41;67.74;96494.34;6214256;23;20017;-81
2023/05/01 07:38:02;;;;;;;12.63;9.73;;;;;;;11.39;68.51;96498.97;6214073;23;20032;-81
2023/05/01 07:40:33;;;;;;;9.73;8.30;;;;;;;11.43;69.12;96494.97;6214075;23;20028;-81
2023/05/01 07:43:01;;;;;;;8.00;7.20;;;;;;;11.48;68.73;96497.03;6213589;23;20001;-81
2023/05/01 07:45:31;;;;;;;8.63;7.10;;;;;;;11.49;69.07;96504.66;6213872;23;20005;-81
2023/05/01 07:48:00;;;;;;;8.55;7.53;;;;;;;11.51;67.48;96501.88;6214410;23;20074;-81
2023/05/01 07:50:29;;;;;;;7.07;6.43;;;;;;;11.48;67.39;96508.28;6198917;22;20056;-81
2023/05/01 07:52:57;;;;;;;9.40;8.45;;;;;;;11.43;66.31;96509.84;6214048;23;20085;-81
2023/05/01 07:55:25;;;;;;;9.13;7.50;;;;;;;11.38;68.54;96507.00;6214186;23;20027;-81
2023/05/01 07:57:54;;;;;;;8.45;7.10;;;;;;;11.40;69.31;96513.63;6213974;23;20017;-81
2023/05/01 08:00:22;;;;;;;10.77;8.27;;;;;;;11.41;67.15;96507.41;6213952;23;20005;-82
2023/05/01 08:02:52;;;;;;;9.20;8.30;;;;;;;11.38;66.50;96507.78;6212462;23;20005;-87
2023/05/01 08:05:20;;;;;;;8.57;7.68;;;;;;;11.38;66.69;96513.00;6225569;23;20017;-85
2023/05/01 08:07:48;;;;;;;12.77;8.88;;;;;;;11.39;66.51;96511.19;6225768;23;20055;-85
2023/05/01 08:10:16;;;;;;;9.65;6.97;;;;;;;11.39;66.15;96514.63;6227334;23;20023;-87
2023/05/01 08:12:43;;;;;;;9.75;7.95;;;;;;;11.42;68.53;96523.91;6228614;23;20462;-85
2023/05/01 08:15:11;;;;;;;8.68;7.80;;;;;;;11.48;69.44;96517.94;6228624;23;20019;-85
2023/05/01 08:17:38;;;;;;;21.63;14.13;;;;;;;11.50;67.35;96516.72;6227861;23;20017;-84
2023/05/01 08:20:09;;;;;;;8.05;7.00;;;;;;;11.49;64.99;96522.94;6227677;23;20099;-81
2023/05/01 08:22:37;;;;;;;8.60;7.25;;;;;;;11.45;64.51;96523.50;6228562;23;20070;-82
2023/05/01 08:25:05;;;;;;;7.85;6.13;;;;;;;11.42;64.30;96524.69;6225261;23;20029;-84
2023/05/01 08:27:33;;;;;;;9.27;6.57;;;;;;;11.40;64.48;96518.84;6225852;23;20103;-84
2023/05/01 08:30:01;;;;;;;8.50;7.60;;;;;;;11.40;64.68;96516.25;6227521;23;20418;-82
2023/05/01 08:32:29;;;;;;;8.45;7.22;;;;;;;11.39;64.41;96519.88;6225567;23;20048;-80
2023/05/01 08:34:57;;;;;;;9.10;7.10;;;;;;;11.40;64.48;96521.47;6224648;23;20096;-86
2023/05/01 08:37:26;;;;;;;8.07;6.88;;;;;;;11.42;64.73;96519.47;6223021;23;20031;-82
2023/05/01 08:39:54;;;;;;;8.65;6.30;;;;;;;11.50;67.21;96521.97;6223316;23;20112;-84
2023/05/01 08:42:22;;;;;;;7.45;6.75;;;;;;;11.61;67.83;96520.63;6222396;23;20013;-82
2023/05/01 08:44:53;;;;;;;7.68;6.80;;;;;;;11.75;68.76;96518.91;6225514;23;20025;-86
2023/05/01 08:47:22;;;;;;;9.63;8.20;;;;;;;11.80;65.99;96518.34;6225863;23;20099;-84
2023/05/01 08:49:51;;;;;;;8.13;6.97;;;;;;;11.84;66.24;96517.75;6225987;23;20020;-83
2023/05/01 08:52:22;;;;;;;8.68;7.50;;;;;;;11.91;65.47;96523.06;6226566;23;20024;-84
2023/05/01 08:54:55;;;;;;;9.88;6.93;;;;;;;11.96;64.79;96518.09;6226538;23;20343;-83
2023/05/01 08:57:24;;;;;;;7.55;6.80;;;;;;;12.02;64.52;96519.09;6225521;23;20066;-85
2023/05/01 08:59:56;;;;;;;7.38;6.63;;;;;;;12.05;64.04;96516.13;6223971;23;20064;-83
2023/05/01 09:02:26;;;;;;;8.77;7.97;;;;;;;12.09;63.69;96512.94;6224913;23;20027;-87
2023/05/01 09:04:54;;;;;;;7.63;6.60;;;;;;;12.12;65.56;96515.13;6224389;23;20068;-88
2023/05/01 09:07:22;;;;;;;8.48;7.30;;;;;;;12.25;68.20;96514.41;6225264;23;20025;-85
2023/05/01 09:09:51;;;;;;;7.15;6.45;;;;;;;12.38;67.47;96515.47;6224571;23;20099;-84
2023/05/01 09:12:24;;;;;;;9.50;6.35;;;;;;;12.42;66.08;96508.81;6224997;23;20025;-86
2023/05/01 09:14:52;;;;;;;8.23;7.07;;;;;;;12.46;65.48;96510.06;6222842;23;20064;-86
2023/05/01 09:17:21;;;;;;;7.60;6.20;;;;;;;12.54;65.95;96515.13;6222359;23;20020;-83
2023/05/01 09:19:50;;;;;;;7.47;6.65;;;;;;;12.62;67.45;96519.38;6223190;23;20470;-85
2023/05/01 09:22:19;;;;;;;7.65;6.13;;;;;;;12.70;65.77;96506.94;6222977;23;20017;-82
2023/05/01 09:24:46;;;;;;;9.20;8.23;;;;;;;12.72;64.12;96510.13;6222969;23;20095;-87
2023/05/01 09:27:15;;;;;;;9.32;7.82;;;;;;;12.72;63.22;96511.94;6222789;23;20055;-84
2023/05/01 09:29:44;;;;;;;8.65;7.65;;;;;;;12.71;63.09;96513.78;6221900;23;20012;-83
2023/05/01 09:32:18;;;;;;;12.45;7.68;;;;;;;12.70;64.01;96517.41;6221769;23;20273;-85
2023/05/01 09:34:46;;;;;;;8.57;7.10;;;;;;;12.71;63.03;96510.34;6222177;23;20031;-87
2023/05/01 09:37:27;;;;;;;8.05;7.25;;;;;;;12.70;62.71;96520.03;6222394;23;20020;-85
2023/05/01 09:40:03;;;;;;;7.68;6.75;;;;;;;12.71;64.77;96513.78;6221793;23;20017;-83
2023/05/01 09:42:33;;;;;;;9.68;7.15;;;;;;;12.78;63.03;96514.59;6223747;23;20035;-81
2023/05/01 09:45:03;;;;;;;8.20;7.10;;;;;;;12.85;63.29;96509.38;6223178;23;20083;-84
2023/05/01 09:47:32;;;;;;;8.05;7.25;;;;;;;12.91;62.50;96507.78;6223877;23;20020;-87
2023/05/01 09:50:00;;;;;;;9.70;7.32;;;;;;;13.04;64.46;96509.63;6223210;23;20071;-83
2023/05/01 09:52:29;;;;;;;15.90;11.18;;;;;;;13.11;63.56;96498.13;6223325;23;20017;-83
2023/05/01 09:55:12;;;;;;;9.43;7.82;;;;;;;13.20;62.65;96507.41;6222123;23;20357;-84
2023/05/01 09:57:42;;;;;;;8.63;6.47;;;;;;;13.27;62.29;96506.59;6222461;23;20016;-83
2023/05/01 10:00:14;;;;;;;8.52;7.30;;;;;;;13.34;61.51;96503.03;6222483;23;20021;-82
2023/05/01 10:02:44;;;;;;;9.45;6.97;;;;;;;13.46;61.90;96505.03;6222462;23;20096;-82
2023/05/01 10:05:12;;;;;;;7.97;7.18;;;;;;;13.54;61.16;96500.41;6222222;23;20421;-85
2023/05/01 10:07:43;;;;;;;7.72;6.47;;;;;;;13.69;64.24;96505.44;6222771;23;20021;-80
2023/05/01 10:10:18;;;;;;;9.77;6.90;;;;;;;13.78;64.50;96504.19;6221685;23;20170;-81
2023/05/01 10:12:47;;;;;;;10.13;6.75;;;;;;;13.87;60.86;96502.19;6221423;23;20042;-85
2023/05/01 10:15:15;;;;;;;7.47;6.70;;;;;;;13.96;59.52;96500.94;6220895;23;20038;-81
2023/05/01 10:17:53;;;;;;;13.88;9.55;;;;;;;14.03;58.82;96500.91;6221598;23;20067;-80
2023/05/01 10:20:21;;;;;;;8.27;6.65;;;;;;;14.07;58.79;96506.56;6221311;23;20032;-80
2023/05/01 10:22:49;;;;;;;12.00;7.18;;;;;;;14.08;58.87;96497.69;6222036;23;20021;-83
2023/05/01 10:25:17;;;;;;;7.20;6.50;;;;;;;14.10;58.98;96498.28;6221480;23;20376;-83
2023/05/01 10:27:48;;;;;;;7.15;6.45;;;;;;;14.12;59.30;96504.94;6221731;23;20020;-84
2023/05/01 10:30:17;;;;;;;7.60;6.25;;;;;;;14.24;62.32;96507.72;6222079;23;20064;-80
2023/05/01 10:32:46;;;;;;;7.70;6.90;;;;;;;14.39;62.60;96503.03;6221324;23;20021;-82
2023/05/01 10:35:19;;;;;;;7.20;6.50;;;;;;;14.46;58.76;96510.88;6222385;23;20024;-83
2023/05/01 10:37:48;;;;;;;12.45;10.02;;;;;;;14.52;58.29;96506.59;6223082;23;20099;-80
2023/05/01 10:40:45;;;;;;;7.88;7.00;;;;;;;14.60;58.35;96511.66;6223363;23;20027;-82
2023/05/01 10:43:19;;;;;;;7.90;6.82;;;;;;;14.66;56.90;96510.03;6225246;23;20027;-81
2023/05/01 10:45:48;;;;;;;7.50;6.78;;;;;;;14.77;58.51;96506.72;6225872;23;20019;-84
2023/05/01 10:48:58;;;;;;;7.45;6.28;;;;;;;14.92;59.21;96509.88;6226074;23;20035;-81
2023/05/01 10:51:27;;;;;;;7.38;6.47;;;;;;;14.97;57.27;96506.59;6228802;23;20021;-87
2023/05/01 10:54:26;;;;;;;7.88;7.00;;;;;;;15.02;57.95;96504.97;6228184;23;20017;-85
2023/05/01 10:56:56;;;;;;;17.55;14.93;;;;;;;15.10;57.51;96492.59;6228158;23;20099;-83
2023/05/01 10:59:25;;;;;;;8.18;7.20;;;;;;;15.15;56.07;96492.75;6227692;23;20108;-86
2023/05/01 11:01:53;;;;;;;6.78;6.15;;;;;;;15.20;57.38;96495.56;6227610;23;20017;-83
2023/05/01 11:04:52;;;;;;;7.15;5.97;;;;;;;15.24;55.89;96483.59;6227360;23;20025;-85
2023/05/01 11:07:24;;;;;;;6.63;6.03;;;;;;;15.23;56.52;96485.41;6227757;23;20043;-83
2023/05/01 11:09:56;;;;;;;7.30;6.32;;;;;;;15.27;56.19;96479.75;6227262;23;20071;-84
2023/05/01 11:12:52;;;;;;;6.57;5.87;;;;;;;15.32;58.31;96479.91;6227888;23;20064;-80
2023/05/01 11:15:29;;;;;;;6.30;5.70;;;;;;;15.38;59.78;96481.66;6226884;23;20020;-83
2023/05/01 11:17:58;;;;;;;6.78;5.97;;;;;;;15.44;56.08;96481.63;6227947;23;20103;-81
2023/05/01 11:21:01;;;;;;;11.27;6.22;;;;;;;15.59;56.60;96475.19;6229086;23;20077;-82
2023/05/01 11:23:28;;;;;;;5.82;5.18;;;;;;;15.81;58.17;96478.28;6230279;23;20021;-84
2023/05/01 11:26:04;;;;;;;17.65;15.60;;;;;;;15.98;58.04;96474.06;6230879;23;20027;-84
2023/05/01 11:28:34;;;;;;;19.02;15.05;;;;;;;16.11;55.36;96473.09;6229397;23;20021;-83
2023/05/01 11:31:03;;;;;;;7.07;6.15;;;;;;;16.18;53.71;96471.22;6230401;23;20025;-83
2023/05/01 11:33:30;;;;;;;6.53;5.75;;;;;;;16.29;53.02;96472.31;6230653;23;20016;-84
2023/05/01 11:35:59;;;;;;;6.18;5.50;;;;;;;16.40;52.31;96470.75;6230852;23;20031;-84
2023/05/01 11:38:27;;;;;;;6.32;5.72;;;;;;;16.45;52.44;96461.16;6230345;23;20024;-84
2023/05/01 11:40:58;;;;;;;5.85;5.20;;;;;;;16.50;52.29;96459.69;6228094;23;20051;-82
2023/05/01 11:43:26;;;;;;;7.13;5.65;;;;;;;16.56;52.84;96461.44;6228131;23;20091;-83
2023/05/01 11:46:00;;;;;;;5.57;5.07;;;;;;;16.63;52.13;96462.94;6225552;23;20036;-81
2023/05/01 11:48:31;;;;;;;5.13;4.45;;;;;;;16.71;51.98;96459.19;6226878;23;20017;-84